createdAt,value
2018-06-14T00:00:23.181Z,20.33
2018-06-14T00:02:53.643Z,20.29
2018-06-14T00:05:24.116Z,20.14
2018-06-14T00:07:55.822Z,20.34
2018-06-14T00:10:26.261Z,20.39
2018-06-14T00:12:56.573Z,20.20
2018-06-14T00:15:26.927Z,20.30
2018-06-14T00:17:57.261Z,20.31
2018-06-14T00:20:27.589Z,20.03
2018-06-14T00:23:03.653Z,20.05
2018-06-14T00:25:47.181Z,20.16
2018-06-14T00:28:40.497Z,20.21
2018-06-14T00:31:10.938Z,20.25
2018-06-14T00:33:41.285Z,20.05
2018-06-14T00:36:11.711Z,20.14
2018-06-14T00:38:43.425Z,20.08
2018-06-14T00:41:13.869Z,19.87
2018-06-14T00:43:44.424Z,19.92
2018-06-14T00:46:14.812Z,19.74
2018-06-14T00:48:48.249Z,19.82
2018-06-14T00:51:18.642Z,19.93
2018-06-14T00:53:49.059Z,20.08
2018-06-14T00:56:19.173Z,20.00
2018-06-14T00:58:49.649Z,19.93
2018-06-14T01:01:20.102Z,19.73
2018-06-14T01:03:50.487Z,19.61
2018-06-14T01:06:20.980Z,19.71
2018-06-14T01:08:54.573Z,19.86
2018-06-14T01:11:24.936Z,19.74
2018-06-14T01:13:56.037Z,19.81
2018-06-14T01:16:26.471Z,19.63
2018-06-14T01:18:56.863Z,19.61
2018-06-14T01:21:27.306Z,19.76
2018-06-14T01:23:57.586Z,19.78
2018-06-14T01:26:28.032Z,20.07
2018-06-14T01:29:01.965Z,19.94
2018-06-14T01:31:32.383Z,19.75
2018-06-14T01:34:02.692Z,19.64
2018-06-14T01:36:32.924Z,19.50
2018-06-14T01:39:03.703Z,19.44
2018-06-14T01:41:34.144Z,19.37
2018-06-14T01:44:04.468Z,19.45
2018-06-14T01:46:34.813Z,19.52
2018-06-14T01:49:08.700Z,19.69
2018-06-14T01:51:39.176Z,19.63
2018-06-14T01:54:09.178Z,19.60
2018-06-14T01:56:39.566Z,19.37
2018-06-14T01:59:13.036Z,19.47
2018-06-14T02:01:43.526Z,19.38
2018-06-14T02:04:13.834Z,19.23
2018-06-14T02:06:44.244Z,19.03
2018-06-14T02:09:18.136Z,19.31
2018-06-14T02:11:48.350Z,19.28
2018-06-14T02:14:18.808Z,18.84
2018-06-14T02:16:49.085Z,18.04
2018-06-14T02:19:23.574Z,18.57
2018-06-14T02:21:54.002Z,18.74
2018-06-14T02:24:24.467Z,18.58
2018-06-14T02:26:54.913Z,18.59
2018-06-14T02:29:28.958Z,18.14
2018-06-14T02:31:59.273Z,18.13
2018-06-14T02:34:29.593Z,18.60
2018-06-14T02:36:59.816Z,18.79
2018-06-14T02:39:33.353Z,18.77
2018-06-14T02:42:03.609Z,18.59
2018-06-14T02:44:33.616Z,18.84
2018-06-14T02:47:03.911Z,18.84
2018-06-14T02:49:37.821Z,18.57
2018-06-14T02:52:08.198Z,18.60
2018-06-14T02:54:38.609Z,18.77
2018-06-14T02:57:08.944Z,18.82
2018-06-14T02:59:39.249Z,18.88
2018-06-14T03:02:09.740Z,19.00
2018-06-14T03:04:40.124Z,18.83
2018-06-14T03:07:10.545Z,18.78
2018-06-14T03:09:41.008Z,18.76
2018-06-14T03:12:11.464Z,18.97
2018-06-14T03:14:41.898Z,19.04
2018-06-14T03:17:12.417Z,18.68
2018-06-14T03:19:42.819Z,18.71
2018-06-14T03:22:13.016Z,18.61
2018-06-14T03:24:43.493Z,18.63
2018-06-14T03:27:17.863Z,18.95
2018-06-14T03:29:48.267Z,18.78
2018-06-14T03:32:18.337Z,19.23
2018-06-14T03:34:48.693Z,19.29
2018-06-14T03:37:19.160Z,19.21
2018-06-14T03:39:49.645Z,19.21
2018-06-14T03:42:20.044Z,19.20
2018-06-14T03:44:50.408Z,19.38
2018-06-14T03:47:23.863Z,19.62
2018-06-14T03:49:54.221Z,19.63
2018-06-14T03:52:24.650Z,19.73
2018-06-14T03:54:54.974Z,19.76
2018-06-14T03:57:31.122Z,19.99
2018-06-14T04:00:01.365Z,20.00
2018-06-14T04:02:31.681Z,19.96
2018-06-14T04:05:01.953Z,20.08
2018-06-14T04:07:32.481Z,20.17
2018-06-14T04:10:02.969Z,20.47
2018-06-14T04:12:33.160Z,20.64
2018-06-14T04:15:03.628Z,20.90
2018-06-14T04:17:35.123Z,20.97
2018-06-14T04:20:05.429Z,21.20
2018-06-14T04:22:35.773Z,21.40
2018-06-14T04:25:06.150Z,21.50
2018-06-14T04:27:40.996Z,21.20
2018-06-14T04:30:11.467Z,21.71
2018-06-14T04:32:41.870Z,21.85
2018-06-14T04:35:12.317Z,21.85
2018-06-14T04:37:42.679Z,22.13
2018-06-14T04:40:13.130Z,22.49
2018-06-14T04:42:43.404Z,22.40
2018-06-14T04:45:13.702Z,21.83
2018-06-14T04:47:45.283Z,21.64
2018-06-14T04:50:15.721Z,21.68
2018-06-14T04:52:46.118Z,22.20
2018-06-14T04:55:16.478Z,22.86
2018-06-14T04:57:49.829Z,22.61
2018-06-14T05:00:20.522Z,22.66
2018-06-14T05:02:51.032Z,22.14
2018-06-14T05:05:21.282Z,22.62
2018-06-14T05:07:51.850Z,22.42
2018-06-14T05:10:22.165Z,22.71
2018-06-14T05:12:52.596Z,23.45
2018-06-14T05:15:22.773Z,23.99
2018-06-14T05:17:53.817Z,23.52
2018-06-14T05:20:24.162Z,22.49
2018-06-14T05:22:54.537Z,22.35
2018-06-14T05:25:24.965Z,23.37
2018-06-14T05:27:55.925Z,23.30
2018-06-14T05:30:26.277Z,23.18
2018-06-14T05:32:56.703Z,24.54
2018-06-14T05:35:26.788Z,24.04
2018-06-14T05:38:00.896Z,24.17
2018-06-14T05:40:31.134Z,23.46
2018-06-14T05:43:01.463Z,23.32
2018-06-14T05:45:31.702Z,24.64
2018-06-14T05:48:02.055Z,24.62
2018-06-14T05:50:32.432Z,25.10
2018-06-14T05:53:02.795Z,25.43
2018-06-14T05:55:33.132Z,25.61
2018-06-14T05:58:06.937Z,25.47
2018-06-14T06:00:37.279Z,25.88
2018-06-14T06:03:07.667Z,25.54
2018-06-14T06:05:37.879Z,25.96
2018-06-14T06:08:12.102Z,25.96
2018-06-14T06:10:42.497Z,26.24
2018-06-14T06:13:13.036Z,26.21
2018-06-14T06:15:43.273Z,26.31
2018-06-14T06:18:13.794Z,26.68
2018-06-14T06:20:44.001Z,26.57
2018-06-14T06:23:14.364Z,26.26
2018-06-14T06:25:44.667Z,26.41
2018-06-14T06:28:19.068Z,26.60
2018-06-14T06:30:49.322Z,26.47
2018-06-14T06:33:19.819Z,26.69
2018-06-14T06:35:49.920Z,26.79
2018-06-14T06:38:20.347Z,26.57
2018-06-14T06:40:50.797Z,26.34
2018-06-14T06:43:21.186Z,26.96
2018-06-14T06:45:51.629Z,27.33
2018-06-14T06:48:34.021Z,26.84
2018-06-14T06:51:04.570Z,26.87
2018-06-14T06:53:34.942Z,26.89
2018-06-14T06:56:05.269Z,26.88
2018-06-14T06:58:36.896Z,27.21
2018-06-14T07:01:07.282Z,27.42
2018-06-14T07:03:37.585Z,26.90
2018-06-14T07:06:07.919Z,27.66
2018-06-14T07:08:38.163Z,26.86
2018-06-14T07:11:08.418Z,27.57
2018-06-14T07:13:38.809Z,27.23
2018-06-14T07:16:09.277Z,27.51
2018-06-14T07:18:41.216Z,27.59
2018-06-14T07:21:11.679Z,27.78
2018-06-14T07:23:42.039Z,27.55
2018-06-14T07:26:12.241Z,27.55
2018-06-14T07:28:43.734Z,27.30
2018-06-14T07:31:14.055Z,27.42
2018-06-14T07:33:44.450Z,27.06
2018-06-14T07:36:14.887Z,27.37
2018-06-14T07:38:49.014Z,27.69
2018-06-14T07:41:23.393Z,27.33
2018-06-14T07:43:53.810Z,27.64
2018-06-14T07:46:24.196Z,28.07
2018-06-14T07:48:56.031Z,28.04
2018-06-14T07:51:26.385Z,28.00
2018-06-14T07:53:56.687Z,28.16
2018-06-14T07:56:27.061Z,27.73
2018-06-14T07:58:57.506Z,28.05
2018-06-14T08:01:27.881Z,28.24
2018-06-14T08:03:58.266Z,28.31
2018-06-14T08:06:32.759Z,28.44
2018-06-14T08:09:02.925Z,28.32
2018-06-14T08:11:33.518Z,28.46
2018-06-14T08:14:03.742Z,28.32
2018-06-14T08:16:38.031Z,28.76
2018-06-14T08:19:08.462Z,27.60
2018-06-14T08:21:38.929Z,27.81
2018-06-14T08:24:09.180Z,28.65
2018-06-14T08:26:43.546Z,28.59
2018-06-14T08:29:13.893Z,28.18
2018-06-14T08:31:44.345Z,28.38
2018-06-14T08:34:14.853Z,28.93
2018-06-14T08:36:46.362Z,29.01
2018-06-14T08:39:16.807Z,28.71
2018-06-14T08:41:47.251Z,29.37
2018-06-14T08:44:17.857Z,28.31
2018-06-14T08:46:52.662Z,29.08
2018-06-14T08:49:23.430Z,29.59
2018-06-14T08:51:53.956Z,28.97
2018-06-14T08:54:24.591Z,29.43
2018-06-14T08:57:00.706Z,29.37
2018-06-14T08:59:31.024Z,29.35
2018-06-14T09:02:01.303Z,29.23
2018-06-14T09:04:31.754Z,29.85
2018-06-14T09:07:02.350Z,28.83
2018-06-14T09:09:32.641Z,29.71
2018-06-14T09:12:03.003Z,29.09
2018-06-14T09:14:33.261Z,29.95
2018-06-14T09:17:03.273Z,29.42
2018-06-14T09:19:33.851Z,29.52
2018-06-14T09:22:04.428Z,29.10
2018-06-14T09:24:34.718Z,29.30
2018-06-14T09:27:04.889Z,29.24
2018-06-14T09:29:35.991Z,29.10
2018-06-14T09:32:06.414Z,29.28
2018-06-14T09:34:36.902Z,29.15
2018-06-14T09:37:07.605Z,28.68
2018-06-14T09:39:38.776Z,28.75
2018-06-14T09:42:09.166Z,29.01
2018-06-14T09:44:39.419Z,29.06
2018-06-14T09:47:09.966Z,28.79
2018-06-14T09:49:40.392Z,29.57
2018-06-14T09:52:10.633Z,28.95
2018-06-14T09:54:40.990Z,29.24
2018-06-14T09:57:11.626Z,29.53
2018-06-14T09:59:42.180Z,29.16
2018-06-14T10:02:13.563Z,29.48
2018-06-14T10:04:44.390Z,29.60
2018-06-14T10:07:16.813Z,29.83
2018-06-14T10:09:47.164Z,29.37
2018-06-14T10:12:17.312Z,29.10
2018-06-14T10:14:47.757Z,29.65
2018-06-14T10:17:21.490Z,29.36
2018-06-14T10:19:51.931Z,29.13
2018-06-14T10:22:23.378Z,28.73
2018-06-14T10:24:54.435Z,29.13
2018-06-14T10:27:30.554Z,28.83
2018-06-14T10:30:00.986Z,29.02
2018-06-14T10:32:31.474Z,29.33
2018-06-14T10:35:01.834Z,28.96
2018-06-14T10:37:35.419Z,28.84
2018-06-14T10:40:05.797Z,29.13
2018-06-14T10:42:36.200Z,29.30
2018-06-14T10:45:06.451Z,29.14
2018-06-14T10:47:36.912Z,29.06
2018-06-14T10:50:07.427Z,28.47
2018-06-14T10:52:37.677Z,28.34
2018-06-14T10:55:07.982Z,29.21
2018-06-14T10:57:42.163Z,29.30
2018-06-14T11:00:14.124Z,29.10
2018-06-14T11:02:44.410Z,28.90
2018-06-14T11:05:14.879Z,29.35
2018-06-14T11:07:48.824Z,29.23
2018-06-14T11:10:21.341Z,29.04
2018-06-14T11:12:51.807Z,28.58
2018-06-14T11:15:24.839Z,29.08
2018-06-14T11:17:58.570Z,28.76
2018-06-14T11:20:28.848Z,29.04
2018-06-14T11:22:59.177Z,28.93
2018-06-14T11:25:29.622Z,28.98
2018-06-14T11:28:05.737Z,29.21
2018-06-14T11:30:36.370Z,29.14
2018-06-14T11:33:06.623Z,29.06
2018-06-14T11:35:37.007Z,28.92
2018-06-14T11:38:07.644Z,28.82
2018-06-14T11:40:38.189Z,28.81
2018-06-14T11:43:08.464Z,29.01
2018-06-14T11:45:39.033Z,29.10
2018-06-14T11:48:09.298Z,28.94
2018-06-14T11:50:39.444Z,29.13
2018-06-14T11:53:09.676Z,29.50
2018-06-14T11:55:40.090Z,28.91
2018-06-14T11:58:14.273Z,28.81
2018-06-14T12:00:44.717Z,28.91
2018-06-14T12:03:14.991Z,28.97
2018-06-14T12:05:45.306Z,28.60
2018-06-14T12:08:18.872Z,28.84
2018-06-14T12:10:49.196Z,28.52
2018-06-14T12:13:19.656Z,29.24
2018-06-14T12:15:49.945Z,28.37
2018-06-14T12:18:20.253Z,28.98
2018-06-14T12:20:50.703Z,28.42
2018-06-14T12:23:21.056Z,28.57
2018-06-14T12:25:51.450Z,28.76
2018-06-14T12:28:21.829Z,28.82
2018-06-14T12:30:52.256Z,28.74
2018-06-14T12:33:22.674Z,28.79
2018-06-14T12:35:55.939Z,28.63
2018-06-14T12:38:26.089Z,28.67
2018-06-14T12:40:56.520Z,28.62
2018-06-14T12:43:26.970Z,28.67
2018-06-14T12:45:57.322Z,28.19
2018-06-14T12:48:27.654Z,28.38
2018-06-14T12:50:58.027Z,28.63
2018-06-14T12:53:28.333Z,28.28
2018-06-14T12:55:58.860Z,27.93
2018-06-14T12:58:29.088Z,28.36
2018-06-14T13:01:02.806Z,28.01
2018-06-14T13:03:37.206Z,27.85
2018-06-14T13:06:09.125Z,27.96
2018-06-14T13:08:40.552Z,27.68
2018-06-14T13:11:11.478Z,27.47
2018-06-14T13:13:41.737Z,27.70
2018-06-14T13:16:17.139Z,27.37
2018-06-14T13:18:47.924Z,27.58
2018-06-14T13:21:19.886Z,27.67
2018-06-14T13:23:50.730Z,28.06
2018-06-14T13:26:24.775Z,27.42
2018-06-14T13:28:55.262Z,27.47
2018-06-14T13:31:27.153Z,27.34
2018-06-14T13:33:58.381Z,27.25
2018-06-14T13:36:31.870Z,27.33
2018-06-14T13:39:02.185Z,27.43
2018-06-14T13:41:32.573Z,27.52
2018-06-14T13:44:02.807Z,27.49
2018-06-14T13:46:36.242Z,27.28
2018-06-14T13:49:06.703Z,27.29
2018-06-14T13:51:37.059Z,27.70
2018-06-14T13:54:07.397Z,27.60
2018-06-14T13:56:38.981Z,27.00
2018-06-14T13:59:09.207Z,27.31
2018-06-14T14:01:39.541Z,27.31
2018-06-14T14:04:10.006Z,26.90
2018-06-14T14:06:41.354Z,27.29
2018-06-14T14:09:11.738Z,27.21
2018-06-14T14:11:42.024Z,27.09
2018-06-14T14:14:12.288Z,27.05
2018-06-14T14:16:42.709Z,26.92
2018-06-14T14:19:13.144Z,26.52
2018-06-14T14:21:43.480Z,26.71
2018-06-14T14:24:13.726Z,26.70
2018-06-14T14:26:47.647Z,26.70
2018-06-14T14:29:18.085Z,26.66
2018-06-14T14:31:48.366Z,26.75
2018-06-14T14:34:18.826Z,26.86
2018-06-14T14:36:52.665Z,26.76
2018-06-14T14:39:23.111Z,26.72
2018-06-14T14:41:53.442Z,26.39
2018-06-14T14:44:23.746Z,26.70
2018-06-14T14:46:57.769Z,26.42
2018-06-14T14:49:28.058Z,26.37
2018-06-14T14:51:58.521Z,26.36
2018-06-14T14:54:28.773Z,26.49
2018-06-14T14:57:02.742Z,26.28
2018-06-14T14:59:33.202Z,26.17
2018-06-14T15:02:03.609Z,26.57
2018-06-14T15:04:34.118Z,26.35
2018-06-14T15:07:05.637Z,26.52
2018-06-14T15:09:36.058Z,26.48
2018-06-14T15:12:06.338Z,26.44
2018-06-14T15:14:36.798Z,26.31
2018-06-14T15:17:08.279Z,26.35
2018-06-14T15:19:38.706Z,26.24
2018-06-14T15:22:09.038Z,26.32
2018-06-14T15:24:39.382Z,26.22
2018-06-14T15:27:10.896Z,25.99
2018-06-14T15:29:41.104Z,26.13
2018-06-14T15:32:11.343Z,25.80
2018-06-14T15:34:41.732Z,25.63
2018-06-14T15:37:17.909Z,25.66
2018-06-14T15:39:48.368Z,25.70
2018-06-14T15:42:18.736Z,25.68
2018-06-14T15:44:49.014Z,25.74
2018-06-14T15:47:23.053Z,25.70
2018-06-14T15:49:53.449Z,25.35
2018-06-14T15:52:23.809Z,25.50
2018-06-14T15:54:53.456Z,25.36
2018-06-14T15:57:23.797Z,25.33
2018-06-14T15:59:54.260Z,25.42
2018-06-14T16:02:24.558Z,25.35
2018-06-14T16:04:54.987Z,25.44
2018-06-14T16:07:25.783Z,25.35
2018-06-14T16:09:56.354Z,25.25
2018-06-14T16:12:26.555Z,25.49
2018-06-14T16:14:56.995Z,25.37
2018-06-14T16:17:30.977Z,25.27
2018-06-14T16:20:02.987Z,25.22
2018-06-14T16:22:33.433Z,24.99
2018-06-14T16:25:03.901Z,25.01
2018-06-14T16:27:38.014Z,24.96
2018-06-14T16:30:14.952Z,25.05
2018-06-14T16:32:50.803Z,24.82
2018-06-14T16:35:25.059Z,24.98
2018-06-14T16:38:00.382Z,24.98
2018-06-14T16:40:31.519Z,24.66
2018-06-14T16:43:04.963Z,24.72
2018-06-14T16:45:42.136Z,24.70
2018-06-14T16:48:15.689Z,24.51
2018-06-14T16:50:46.475Z,24.66
2018-06-14T16:53:17.388Z,24.33
2018-06-14T16:55:51.550Z,24.41
2018-06-14T16:58:21.932Z,24.42
2018-06-14T17:00:52.284Z,24.14
2018-06-14T17:03:22.700Z,24.11
2018-06-14T17:05:56.681Z,23.91
2018-06-14T17:08:27.112Z,23.94
2018-06-14T17:10:57.577Z,23.75
2018-06-14T17:13:28.086Z,23.54
2018-06-14T17:15:59.483Z,23.49
2018-06-14T17:18:29.810Z,23.48
2018-06-14T17:21:00.292Z,23.38
2018-06-14T17:23:30.787Z,23.49
2018-06-14T17:26:04.614Z,23.37
2018-06-14T17:28:35.213Z,23.60
2018-06-14T17:31:05.639Z,23.50
2018-06-14T17:33:36.088Z,23.47
2018-06-14T17:36:06.597Z,23.59
2018-06-14T17:38:36.777Z,23.48
2018-06-14T17:41:07.377Z,23.34
2018-06-14T17:43:37.869Z,23.46
2018-06-14T17:46:08.507Z,23.60
2018-06-14T17:48:38.998Z,23.41
2018-06-14T17:51:09.938Z,23.74
2018-06-14T17:56:28.145Z,23.62
2018-06-14T17:59:00.427Z,23.24
2018-06-14T18:01:35.773Z,23.24
2018-06-14T18:04:10.194Z,23.16
2018-06-14T18:06:46.258Z,23.06
2018-06-14T18:09:16.791Z,22.98
2018-06-14T18:11:47.230Z,22.80
2018-06-14T18:14:17.887Z,22.84
2018-06-14T18:16:48.618Z,22.48
2018-06-14T18:19:19.129Z,22.81
2018-06-14T18:21:49.331Z,22.77
2018-06-14T18:24:19.579Z,22.65
2018-06-14T18:26:50.298Z,22.34
2018-06-14T18:31:28.577Z,22.55
2018-06-14T18:36:05.297Z,21.85
2018-06-14T18:40:44.844Z,21.35
2018-06-14T18:45:22.047Z,21.84
2018-06-14T18:49:59.316Z,21.95
2018-06-14T18:54:36.163Z,22.19
2018-06-14T18:59:13.996Z,21.83
2018-06-14T19:03:50.733Z,21.25
2018-06-14T19:08:27.835Z,21.26
2018-06-14T19:13:04.731Z,21.41
2018-06-14T19:17:41.739Z,21.30
2018-06-14T19:22:18.580Z,21.46
2018-06-14T19:26:57.385Z,21.31
2018-06-14T19:31:34.355Z,21.62
2018-06-14T19:36:11.349Z,21.72
2018-06-14T19:40:48.129Z,21.71
2018-06-14T19:45:27.189Z,21.06
2018-06-14T19:50:09.876Z,21.08
2018-06-14T19:54:46.877Z,21.27
2018-06-14T19:59:23.592Z,21.31
2018-06-14T20:04:00.435Z,21.23
2018-06-14T20:08:37.293Z,21.24
2018-06-14T20:13:14.062Z,21.26
2018-06-14T20:17:51.163Z,21.20
2018-06-14T20:22:27.990Z,21.21
2018-06-14T20:27:04.704Z,21.52
2018-06-14T20:32:34.575Z,21.35
2018-06-14T20:37:13.414Z,20.80
2018-06-14T20:41:51.969Z,20.55
2018-06-14T20:46:31.712Z,20.50
2018-06-14T20:51:10.242Z,20.56
2018-06-14T20:55:50.052Z,20.51
2018-06-14T21:00:29.286Z,20.74
2018-06-14T21:05:08.237Z,21.06
2018-06-14T21:09:46.944Z,20.75
2018-06-14T21:14:25.606Z,20.64
2018-06-14T21:19:04.213Z,20.44
2018-06-14T21:23:42.765Z,20.42
2018-06-14T21:28:21.413Z,20.62
2018-06-14T21:32:59.949Z,20.62
2018-06-14T21:37:38.609Z,20.23
2018-06-14T21:42:17.115Z,20.40
2018-06-14T21:46:55.999Z,20.35
2018-06-14T21:51:34.475Z,20.27
2018-06-14T21:56:13.261Z,20.38
2018-06-14T22:00:51.850Z,19.95
2018-06-14T22:05:30.564Z,19.90
2018-06-14T22:10:09.138Z,19.96
2018-06-14T22:14:47.881Z,19.88
2018-06-14T22:19:26.179Z,20.22
2018-06-14T22:24:04.717Z,20.08
2018-06-14T22:28:43.497Z,19.64
2018-06-14T22:35:36.513Z,20.00
2018-06-14T22:40:15.065Z,19.99
2018-06-14T22:44:53.716Z,19.89
2018-06-14T22:49:32.275Z,19.81
2018-06-14T22:54:10.858Z,19.40
2018-06-14T22:58:49.420Z,19.87
2018-06-14T23:03:27.913Z,19.92
2018-06-14T23:08:07.599Z,19.74
2018-06-14T23:12:46.885Z,19.60
2018-06-14T23:17:29.291Z,19.52
2018-06-14T23:22:07.938Z,19.32
2018-06-14T23:26:46.686Z,19.76
2018-06-14T23:31:25.345Z,20.03
2018-06-14T23:36:03.986Z,18.98
2018-06-14T23:40:42.545Z,19.59
2018-06-14T23:45:21.228Z,19.47
2018-06-14T23:49:59.704Z,19.04
2018-06-14T23:54:39.433Z,19.22
2018-06-14T23:59:18.036Z,19.66
